Time;durP1;ratioP1;P1;durP2;ratioP2;P2;SDS_P1;SDS_P2;PMS_P1;PMS_P2;Temp;Humidity;BMP_temperature;BMP_pressure;BME280_temperature;BME280_humidity;BME280_pressure;Samples;Min_cycle;Max_cycle;Signal;HPM_P1;HPM_P2
2022/08/31 00:04:49;;;;;;;6.73;4.50;;;21.00;99.90;;;;;;4939976;29;20471;-71
2022/08/31 00:07:14;;;;;;;8.57;4.70;;;21.10;99.90;;;;;;4952398;29;20424;-71
2022/08/31 00:09:40;;;;;;;4.53;4.17;;;21.10;99.90;;;;;;4948161;29;20192;-71
2022/08/31 00:12:06;;;;;;;6.07;4.67;;;21.10;99.90;;;;;;4952457;29;20286;-70
2022/08/31 00:14:31;;;;;;;6.10;4.50;;;21.10;99.90;;;;;;4948384;29;20181;-71
2022/08/31 00:16:57;;;;;;;4.60;4.30;;;21.10;99.90;;;;;;4952322;29;20196;-72
2022/08/31 00:19:23;;;;;;;5.77;4.17;;;21.10;99.90;;;;;;4948990;29;20216;-70
2022/08/31 00:21:49;;;;;;;4.80;4.30;;;21.10;99.90;;;;;;4951568;29;20208;-70
2022/08/31 00:24:14;;;;;;;4.93;4.53;;;21.10;99.90;;;;;;4949918;29;20185;-70
2022/08/31 00:26:41;;;;;;;8.80;5.17;;;21.20;99.90;;;;;;4951059;29;20189;-72
2022/08/31 00:29:07;;;;;;;6.17;4.20;;;21.10;99.90;;;;;;4950057;28;20188;-71
2022/08/31 00:31:32;;;;;;;5.70;4.53;;;21.10;99.90;;;;;;4942358;29;20516;-71
2022/08/31 00:33:58;;;;;;;18.97;5.60;;;21.10;99.90;;;;;;4950806;29;20421;-70
2022/08/31 00:36:25;;;;;;;11.33;5.03;;;21.10;99.90;;;;;;4950192;29;20686;-71
2022/08/31 00:38:51;;;;;;;11.33;4.50;;;21.20;99.90;;;;;;4948715;29;20291;-70
2022/08/31 00:41:22;;;;;;;5.00;4.23;;;21.10;99.90;;;;;;4950476;28;20976;-70
2022/08/31 00:44:08;;;;;;;5.30;4.30;;;21.00;99.90;;;;;;4948125;28;20428;-70
2022/08/31 00:46:40;;;;;;;6.23;4.90;;;21.00;99.90;;;;;;4942955;29;20444;-70
2022/08/31 00:49:23;;;;;;;6.00;5.40;;;20.90;99.90;;;;;;4941893;28;20405;-72
2022/08/31 00:52:11;;;;;;;7.00;5.43;;;20.80;99.90;;;;;;4952249;29;20439;-70
2022/08/31 00:54:59;;;;;;;6.47;5.73;;;20.60;99.90;;;;;;4939752;29;20413;-71
2022/08/31 00:57:30;;;;;;;7.93;7.13;;;20.30;99.90;;;;;;4949879;29;20427;-70
2022/08/31 00:59:57;;;;;;;13.77;7.17;;;20.00;99.90;;;;;;4948959;29;20967;-71
2022/08/31 02:33:00;;;;;;;12.03;9.67;;;17.40;99.90;;;;;;4943448;23;20591;-69
2022/08/31 02:35:26;;;;;;;14.40;10.87;;;17.40;99.90;;;;;;4930617;29;20941;-71
2022/08/31 02:37:51;;;;;;;11.63;10.37;;;17.40;99.90;;;;;;4927417;29;20264;-71
2022/08/31 02:40:17;;;;;;;15.13;10.67;;;17.30;99.90;;;;;;4933851;29;20189;-71
2022/08/31 02:42:42;;;;;;;19.37;10.90;;;17.30;99.90;;;;;;4943459;29;20216;-68
2022/08/31 02:45:08;;;;;;;16.00;11.07;;;17.30;99.90;;;;;;4951870;29;20219;-73
2022/08/31 02:47:34;;;;;;;13.80;9.60;;;17.30;99.90;;;;;;4945352;29;20194;-70
2022/08/31 02:50:02;;;;;;;19.50;11.20;;;17.30;99.90;;;;;;4949606;29;20424;-69
2022/08/31 02:52:27;;;;;;;11.53;10.27;;;17.30;99.90;;;;;;4946178;28;20316;-71
2022/08/31 02:54:53;;;;;;;14.90;11.00;;;17.30;99.90;;;;;;4937395;29;20478;-70
2022/08/31 02:57:19;;;;;;;18.27;10.70;;;17.30;99.90;;;;;;4946971;29;20184;-72
2022/08/31 02:59:45;;;;;;;14.20;10.40;;;17.30;99.90;;;;;;4941420;29;20491;-71
2022/08/31 03:02:11;;;;;;;17.43;10.87;;;17.20;99.90;;;;;;4948960;29;20613;-71
2022/08/31 03:04:36;;;;;;;16.00;11.40;;;17.20;99.90;;;;;;4931414;29;20241;-71
2022/08/31 03:07:02;;;;;;;17.43;11.53;;;17.20;99.90;;;;;;4944357;29;20424;-71
2022/08/31 03:09:27;;;;;;;14.30;10.27;;;17.20;99.90;;;;;;4940719;29;20185;-72
2022/08/31 03:11:53;;;;;;;13.80;12.13;;;17.20;99.90;;;;;;4950175;29;20240;-71
2022/08/31 03:14:18;;;;;;;12.23;11.03;;;17.20;99.90;;;;;;4945091;29;20220;-73
2022/08/31 03:16:44;;;;;;;13.23;10.43;;;17.20;99.90;;;;;;4942575;29;20189;-72
2022/08/31 03:19:10;;;;;;;14.83;11.17;;;17.20;99.90;;;;;;4948695;28;20239;-72
2022/08/31 03:21:35;;;;;;;14.20;11.23;;;17.10;99.90;;;;;;4937796;29;20448;-71
2022/08/31 03:24:01;;;;;;;18.87;12.17;;;17.20;99.90;;;;;;4942159;29;20608;-72
2022/08/31 03:26:27;;;;;;;18.53;12.00;;;17.10;99.90;;;;;;4937476;29;20216;-72
2022/08/31 03:28:54;;;;;;;14.10;11.60;;;17.10;99.90;;;;;;4952384;29;20189;-71
2022/08/31 03:31:20;;;;;;;15.23;11.67;;;17.10;99.90;;;;;;4948301;28;20693;-72
2022/08/31 03:33:46;;;;;;;14.07;11.40;;;17.10;99.90;;;;;;4939487;29;20453;-71
2022/08/31 03:36:14;;;;;;;13.03;10.87;;;17.10;99.90;;;;;;4934440;29;20809;-72
2022/08/31 03:38:40;;;;;;;20.93;12.23;;;17.10;99.90;;;;;;4943678;28;20188;-71
2022/08/31 03:41:06;;;;;;;16.93;11.50;;;17.10;99.90;;;;;;4937425;29;20453;-72
2022/08/31 03:43:31;;;;;;;16.33;11.33;;;17.10;99.90;;;;;;4952208;29;20503;-71
2022/08/31 03:45:57;;;;;;;17.60;12.17;;;17.10;99.90;;;;;;4944445;29;20216;-71
2022/08/31 03:48:22;;;;;;;16.80;11.70;;;17.10;99.90;;;;;;4932222;29;20178;-71
2022/08/31 03:50:48;;;;;;;18.07;11.37;;;17.00;99.90;;;;;;4947148;29;20194;-71
2022/08/31 03:53:13;;;;;;;16.40;11.63;;;17.00;99.90;;;;;;4947344;29;20184;-70
2022/08/31 03:55:41;;;;;;;12.70;11.17;;;17.10;99.90;;;;;;4939783;29;20197;-71
2022/08/31 03:58:07;;;;;;;12.27;9.77;;;17.10;99.90;;;;;;4945655;29;20705;-73
2022/08/31 04:00:33;;;;;;;14.77;11.00;;;17.00;99.90;;;;;;4933884;29;20446;-71
2022/08/31 04:03:00;;;;;;;17.87;11.33;;;17.10;99.90;;;;;;4930384;29;20686;-72
2022/08/31 04:05:27;;;;;;;19.27;12.17;;;17.10;99.90;;;;;;4948466;29;20833;-71
2022/08/31 04:07:53;;;;;;;14.83;11.33;;;17.10;99.90;;;;;;4951381;29;20427;-71
2022/08/31 04:10:18;;;;;;;15.13;11.30;;;17.10;99.90;;;;;;4943548;29;20523;-71
2022/08/31 04:12:44;;;;;;;12.33;10.80;;;17.10;99.90;;;;;;4942418;29;20259;-71
2022/08/31 04:15:10;;;;;;;13.30;11.90;;;17.10;99.90;;;;;;4942503;29;20192;-70
2022/08/31 04:17:36;;;;;;;15.40;11.50;;;17.10;99.90;;;;;;4947981;29;20184;-71
2022/08/31 04:20:04;;;;;;;13.50;12.13;;;17.10;99.90;;;;;;4936030;29;20449;-72
2022/08/31 04:22:30;;;;;;;14.40;11.90;;;17.10;99.90;;;;;;4943887;29;20201;-70
2022/08/31 04:24:55;;;;;;;24.27;12.13;;;17.10;99.90;;;;;;4939838;29;20463;-71
2022/08/31 04:27:21;;;;;;;14.07;12.57;;;17.10;99.90;;;;;;4949265;29;20275;-72
2022/08/31 04:29:46;;;;;;;17.67;13.20;;;17.10;99.90;;;;;;4944954;29;20185;-73
2022/08/31 04:32:12;;;;;;;12.83;11.60;;;17.10;99.90;;;;;;4949953;29;20227;-71
2022/08/31 04:34:37;;;;;;;13.00;11.70;;;17.10;99.90;;;;;;4934396;29;20244;-73
2022/08/31 04:37:03;;;;;;;16.23;12.00;;;17.00;99.90;;;;;;4951090;29;20259;-73
2022/08/31 04:39:29;;;;;;;13.83;12.37;;;17.10;99.90;;;;;;4942099;29;20180;-74
2022/08/31 04:41:54;;;;;;;19.70;13.13;;;17.10;99.90;;;;;;4951464;28;20260;-74
2022/08/31 04:44:20;;;;;;;16.10;12.27;;;17.00;99.90;;;;;;4946986;29;20184;-75
2022/08/31 04:46:45;;;;;;;15.57;14.07;;;17.00;99.90;;;;;;4948745;29;20600;-74
2022/08/31 04:49:13;;;;;;;16.10;11.73;;;17.00;99.90;;;;;;4933307;28;20208;-76
2022/08/31 04:51:39;;;;;;;16.20;12.13;;;17.00;99.90;;;;;;4946547;28;20205;-74
2022/08/31 04:54:07;;;;;;;16.93;13.73;;;17.10;99.90;;;;;;4932685;29;20520;-77
2022/08/31 04:56:36;;;;;;;13.27;11.70;;;17.10;99.90;;;;;;4934131;29;20197;-74
2022/08/31 04:59:05;;;;;;;15.73;11.40;;;17.10;99.90;;;;;;4948423;29;20421;-74
2022/08/31 05:01:34;;;;;;;14.93;12.40;;;17.10;99.90;;;;;;4931252;29;20515;-74
2022/08/31 05:04:00;;;;;;;14.23;11.77;;;17.10;99.90;;;;;;4940511;29;20960;-74
2022/08/31 05:06:29;;;;;;;13.30;11.90;;;17.10;99.90;;;;;;4930123;29;20464;-74
2022/08/31 05:08:58;;;;;;;12.20;10.93;;;17.10;99.90;;;;;;4935102;29;20448;-77
2022/08/31 05:11:25;;;;;;;22.73;11.87;;;17.10;99.90;;;;;;4942490;29;20429;-77
2022/08/31 05:13:51;;;;;;;13.67;11.40;;;17.00;99.90;;;;;;4941946;29;20413;-75
2022/08/31 05:16:18;;;;;;;12.87;11.33;;;17.00;99.90;;;;;;4952122;28;20432;-75
2022/08/31 05:18:46;;;;;;;14.83;11.30;;;17.00;99.90;;;;;;4946494;29;20421;-75
2022/08/31 05:21:24;;;;;;;14.33;11.80;;;17.10;99.90;;;;;;4945947;29;20461;-74
2022/08/31 05:23:50;;;;;;;13.80;12.40;;;17.00;99.90;;;;;;4951948;28;20419;-72
2022/08/31 05:26:18;;;;;;;20.50;13.20;;;17.10;99.90;;;;;;4934458;29;20848;-75
2022/08/31 05:28:44;;;;;;;15.03;13.30;;;17.10;99.90;;;;;;4928871;29;20474;-73
2022/08/31 05:31:11;;;;;;;14.70;12.87;;;17.10;99.90;;;;;;4946719;28;20480;-73
2022/08/31 05:33:37;;;;;;;14.73;12.70;;;17.10;99.90;;;;;;4937128;29;20429;-72
2022/08/31 05:36:03;;;;;;;15.30;11.80;;;17.20;99.90;;;;;;4947812;29;20436;-74
2022/08/31 05:38:29;;;;;;;13.20;11.87;;;17.20;99.90;;;;;;4945663;28;20490;-75
2022/08/31 05:40:57;;;;;;;15.63;13.93;;;17.20;99.90;;;;;;4945932;29;20795;-73
2022/08/31 05:43:23;;;;;;;13.83;12.53;;;17.20;99.90;;;;;;4944598;29;20275;-73
2022/08/31 05:45:48;;;;;;;13.33;11.27;;;17.20;99.90;;;;;;4951280;28;21117;-73
2022/08/31 05:48:15;;;;;;;14.10;12.40;;;17.20;99.90;;;;;;4946645;29;20177;-73
2022/08/31 05:50:40;;;;;;;15.50;11.80;;;17.20;99.90;;;;;;4942092;28;20663;-72
2022/08/31 05:53:06;;;;;;;11.77;10.70;;;17.20;99.90;;;;;;4941528;29;20440;-73
2022/08/31 05:55:32;;;;;;;11.63;10.50;;;17.30;99.90;;;;;;4950164;29;20184;-73
2022/08/31 05:57:58;;;;;;;15.43;10.30;;;17.30;99.90;;;;;;4939155;29;20188;-73
2022/08/31 06:00:24;;;;;;;11.60;10.37;;;17.30;99.90;;;;;;4936376;29;20241;-74
2022/08/31 06:02:50;;;;;;;17.80;11.00;;;17.30;99.90;;;;;;4954453;29;20448;-73
2022/08/31 06:05:16;;;;;;;16.30;10.40;;;17.30;99.90;;;;;;4945021;29;20988;-72
2022/08/31 06:07:42;;;;;;;12.00;10.80;;;17.30;99.90;;;;;;4949507;29;20467;-72
2022/08/31 06:10:08;;;;;;;12.83;10.90;;;17.30;99.90;;;;;;4935583;28;20687;-72
2022/08/31 06:12:34;;;;;;;13.37;11.20;;;17.40;99.90;;;;;;4953658;28;20277;-71
2022/08/31 06:15:02;;;;;;;12.57;11.10;;;17.40;99.90;;;;;;4941560;28;20442;-71
2022/08/31 06:17:28;;;;;;;15.70;11.77;;;17.30;99.90;;;;;;4945165;29;20182;-72
2022/08/31 06:19:56;;;;;;;13.47;10.97;;;17.40;99.90;;;;;;4943001;29;20539;-72
2022/08/31 06:22:23;;;;;;;12.00;10.80;;;17.40;99.90;;;;;;4944032;29;20209;-72
2022/08/31 06:24:48;;;;;;;16.43;10.57;;;17.40;99.90;;;;;;4947939;29;20471;-72
2022/08/31 06:27:14;;;;;;;12.70;10.30;;;17.40;99.90;;;;;;4949491;28;20427;-72
2022/08/31 06:29:40;;;;;;;12.40;11.10;;;17.40;99.90;;;;;;4944826;29;20604;-72
2022/08/31 06:32:08;;;;;;;12.77;11.20;;;17.40;99.90;;;;;;4939091;29;20216;-72
2022/08/31 06:34:36;;;;;;;12.40;11.20;;;17.40;99.90;;;;;;4931165;29;21219;-72
2022/08/31 06:37:03;;;;;;;12.87;11.57;;;17.40;99.90;;;;;;4952534;29;20494;-72
2022/08/31 06:39:29;;;;;;;12.40;10.53;;;17.40;99.90;;;;;;4949187;29;20517;-73
2022/08/31 06:41:55;;;;;;;14.60;12.30;;;17.30;99.90;;;;;;4943476;29;21044;-72
2022/08/31 06:44:22;;;;;;;15.10;11.73;;;17.30;99.90;;;;;;4952327;29;20247;-73
2022/08/31 06:46:49;;;;;;;12.33;10.93;;;17.30;99.90;;;;;;4938645;28;20494;-72
2022/08/31 06:49:15;;;;;;;12.93;11.53;;;17.30;99.90;;;;;;4943949;29;20464;-72
2022/08/31 06:51:41;;;;;;;14.20;11.20;;;17.30;99.90;;;;;;4943356;29;20443;-73
2022/08/31 06:54:10;;;;;;;13.33;10.50;;;17.30;99.90;;;;;;4943863;29;20449;-72
2022/08/31 06:56:35;;;;;;;11.17;10.07;;;17.30;99.90;;;;;;4931903;29;20810;-74
2022/08/31 06:59:03;;;;;;;10.17;9.17;;;17.40;99.90;;;;;;4953788;28;20420;-74
2022/08/31 07:01:30;;;;;;;14.70;10.90;;;17.40;99.90;;;;;;4950357;29;20833;-71
2022/08/31 07:03:58;;;;;;;12.33;11.10;;;17.40;99.90;;;;;;4932719;29;20444;-72
2022/08/31 07:06:28;;;;;;;18.53;10.73;;;17.40;99.90;;;;;;4948156;29;20986;-71
2022/08/31 07:08:56;;;;;;;12.10;10.80;;;17.50;99.90;;;;;;4945774;29;20491;-71
2022/08/31 07:11:35;;;;;;;12.03;10.83;;;17.50;99.90;;;;;;4949177;29;20444;-71
2022/08/31 07:14:02;;;;;;;12.30;10.53;;;17.60;99.90;;;;;;4935466;29;20522;-72
2022/08/31 07:16:28;;;;;;;12.57;11.27;;;17.60;99.90;;;;;;4949620;29;20417;-71
2022/08/31 07:18:57;;;;;;;12.23;11.13;;;17.60;99.90;;;;;;4949012;29;20781;-70
2022/08/31 07:21:30;;;;;;;13.47;11.07;;;17.70;99.90;;;;;;4950591;29;20439;-71
2022/08/31 07:23:59;;;;;;;13.83;10.80;;;17.70;99.90;;;;;;4936869;29;20457;-71
2022/08/31 07:26:28;;;;;;;12.37;10.70;;;17.80;99.90;;;;;;4944786;29;20514;-72
2022/08/31 07:28:56;;;;;;;11.77;10.60;;;17.80;99.90;;;;;;4936436;29;20449;-71
2022/08/31 07:31:24;;;;;;;14.93;10.77;;;17.80;99.90;;;;;;4944960;29;20449;-73
2022/08/31 07:33:52;;;;;;;9.73;8.83;;;17.90;99.90;;;;;;4941568;28;20432;-72
2022/08/31 07:36:18;;;;;;;10.60;9.60;;;17.90;99.90;;;;;;4944187;29;20472;-71
2022/08/31 07:42:08;;;;;;;10.77;9.67;;;18.00;99.90;;;;;;4947600;29;20295;-71
2022/08/31 07:44:22;;;;;;;10.43;9.43;;;18.00;99.90;;;;;;4945456;29;20431;-71
2022/08/31 07:46:48;;;;;;;12.20;9.33;;;18.00;99.90;;;;;;4945924;29;20504;-72
2022/08/31 07:49:15;;;;;;;8.83;8.03;;;18.00;99.90;;;;;;4934562;29;20532;-71
2022/08/31 07:51:45;;;;;;;13.33;8.77;;;18.00;99.90;;;;;;4948325;29;20445;-71
2022/08/31 07:54:12;;;;;;;14.13;9.43;;;18.00;99.90;;;;;;4942449;28;21001;-71
2022/08/31 07:56:38;;;;;;;9.70;8.70;;;18.00;99.90;;;;;;4941459;29;20840;-73
2022/08/31 07:59:06;;;;;;;14.57;9.17;;;18.00;99.90;;;;;;4947773;29;20417;-72
2022/08/31 08:01:33;;;;;;;11.43;9.20;;;18.00;99.90;;;;;;4930629;29;20456;-71
2022/08/31 08:04:00;;;;;;;11.30;10.20;;;18.00;99.90;;;;;;4949171;29;20423;-71
2022/08/31 08:06:27;;;;;;;12.57;9.20;;;18.00;99.90;;;;;;4941635;28;20473;-72
2022/08/31 08:08:54;;;;;;;11.67;10.17;;;18.10;99.90;;;;;;4945358;29;20433;-72
2022/08/31 08:11:21;;;;;;;11.90;10.03;;;18.10;99.90;;;;;;4934102;29;20536;-71
2022/08/31 08:13:47;;;;;;;12.70;10.00;;;18.10;99.90;;;;;;4945606;29;20416;-71
2022/08/31 08:16:14;;;;;;;11.67;10.50;;;18.10;99.90;;;;;;4931441;29;20444;-71
2022/08/31 08:18:39;;;;;;;12.40;11.10;;;18.10;99.90;;;;;;4951106;29;20488;-73
2022/08/31 08:21:05;;;;;;;15.70;11.93;;;18.20;99.90;;;;;;4942734;29;20469;-72
2022/08/31 08:23:31;;;;;;;13.07;10.27;;;18.20;99.90;;;;;;4936882;29;20240;-71
2022/08/31 08:26:00;;;;;;;15.57;12.10;;;18.20;99.90;;;;;;4934228;29;20303;-71
2022/08/31 08:28:27;;;;;;;16.20;11.50;;;18.20;99.90;;;;;;4936218;29;20551;-72
2022/08/31 08:30:53;;;;;;;18.67;10.93;;;18.20;99.90;;;;;;4946851;29;20516;-71
2022/08/31 08:33:19;;;;;;;12.77;11.50;;;18.20;99.90;;;;;;4934918;28;20949;-73
2022/08/31 08:35:45;;;;;;;12.03;10.90;;;18.20;99.90;;;;;;4951040;28;20574;-73
2022/08/31 08:38:10;;;;;;;13.83;11.30;;;18.10;99.90;;;;;;4940159;29;20457;-73
2022/08/31 08:40:41;;;;;;;12.70;9.80;;;18.20;99.90;;;;;;4942407;29;20194;-74
2022/08/31 08:43:15;;;;;;;12.63;9.90;;;18.20;99.90;;;;;;4936171;29;20209;-74
2022/08/31 08:45:44;;;;;;;12.80;11.33;;;18.10;99.90;;;;;;4936404;29;20476;-73
2022/08/31 08:48:12;;;;;;;13.37;9.47;;;18.00;99.90;;;;;;4921736;29;20434;-77
2022/08/31 08:50:40;;;;;;;17.20;9.77;;;18.00;99.90;;;;;;4946307;28;20439;-73
2022/08/31 08:53:11;;;;;;;11.17;10.17;;;18.00;99.90;;;;;;4947926;29;20478;-73
2022/08/31 08:55:39;;;;;;;10.80;9.80;;;18.00;99.90;;;;;;4937843;29;20483;-73
2022/08/31 08:58:08;;;;;;;13.10;10.67;;;18.10;99.90;;;;;;4951487;28;20432;-73
2022/08/31 09:00:33;;;;;;;10.90;9.80;;;18.10;99.90;;;;;;4946534;28;20444;-74
2022/08/31 09:03:20;;;;;;;10.80;9.37;;;18.10;99.90;;;;;;4945718;29;21049;-74
2022/08/31 09:06:08;;;;;;;13.53;10.03;;;18.10;99.90;;;;;;4937529;29;20212;-73
2022/08/31 09:08:58;;;;;;;9.63;8.73;;;18.20;99.90;;;;;;4950560;29;20424;-73
2022/08/31 09:11:41;;;;;;;12.10;9.87;;;18.30;99.90;;;;;;4929237;29;20461;-73
2022/08/31 09:14:47;;;;;;;9.73;8.80;;;18.30;99.90;;;;;;4953164;29;20494;-73
2022/08/31 09:17:54;;;;;;;9.87;8.93;;;18.40;99.90;;;;;;4953001;28;20502;-74
2022/08/31 09:20:20;;;;;;;10.33;9.10;;;18.50;99.90;;;;;;4944816;29;20433;-73
2022/08/31 09:22:54;;;;;;;10.13;9.23;;;18.60;99.90;;;;;;4948533;29;20516;-73
2022/08/31 09:25:28;;;;;;;9.43;8.53;;;18.60;99.90;;;;;;4947596;29;20464;-73
2022/08/31 09:27:57;;;;;;;10.67;9.67;;;18.70;99.90;;;;;;4959627;29;20428;-73
2022/08/31 09:30:43;;;;;;;11.43;9.77;;;18.80;99.90;;;;;;4948366;29;20476;-73
2022/08/31 09:33:22;;;;;;;9.40;8.40;;;18.90;99.90;;;;;;4933057;29;20505;-73
2022/08/31 09:35:54;;;;;;;11.70;8.63;;;19.00;99.90;;;;;;4947178;29;20962;-76
2022/08/31 09:38:36;;;;;;;13.27;8.80;;;19.10;99.90;;;;;;4947067;29;20433;-72
2022/08/31 09:41:07;;;;;;;9.10;7.70;;;19.10;99.90;;;;;;4945871;29;20459;-73
2022/08/31 09:43:36;;;;;;;8.17;7.53;;;19.20;99.90;;;;;;4946313;29;20431;-73
2022/08/31 09:46:19;;;;;;;12.93;7.70;;;19.20;99.90;;;;;;4956677;29;20475;-73
2022/08/31 09:48:51;;;;;;;10.40;8.20;;;19.10;99.90;;;;;;4934296;29;20432;-72
2022/08/31 09:51:26;;;;;;;8.00;7.30;;;19.00;99.90;;;;;;4941935;29;20539;-73
2022/08/31 09:56:56;;;;;;;10.70;9.60;;;19.10;99.90;;;;;;4951295;29;20416;-73
2022/08/31 09:59:39;;;;;;;11.13;8.63;;;19.10;99.90;;;;;;4948084;28;20436;-73
2022/08/31 10:02:30;;;;;;;10.77;8.27;;;19.10;99.90;;;;;;4932258;29;20462;-73
2022/08/31 10:05:05;;;;;;;11.97;8.90;;;19.10;99.90;;;;;;4946387;29;20460;-72
2022/08/31 10:07:42;;;;;;;12.97;7.40;;;19.10;99.90;;;;;;4953434;28;20436;-72
2022/08/31 10:10:13;;;;;;;9.97;8.60;;;19.10;99.90;;;;;;4937963;29;20515;-74
2022/08/31 10:12:45;;;;;;;10.47;8.30;;;19.10;99.90;;;;;;4938249;29;20445;-73
2022/08/31 10:15:29;;;;;;;7.87;7.03;;;19.20;99.90;;;;;;4939049;29;20508;-72
2022/08/31 10:18:12;;;;;;;7.63;6.97;;;19.10;99.90;;;;;;4940542;29;20491;-72
2022/08/31 10:20:45;;;;;;;10.73;8.10;;;19.20;99.90;;;;;;4937372;29;20941;-75
2022/08/31 10:23:32;;;;;;;13.63;8.50;;;19.10;99.90;;;;;;4945542;29;20429;-75
2022/08/31 10:26:06;;;;;;;9.30;8.40;;;19.10;99.90;;;;;;4937094;29;20469;-73
2022/08/31 10:28:50;;;;;;;8.83;7.87;;;19.10;99.90;;;;;;4951542;29;20908;-73
2022/08/31 10:31:43;;;;;;;7.40;6.80;;;19.10;99.90;;;;;;4955767;29;20454;-73
2022/08/31 10:37:09;;;;;;;11.37;8.90;;;19.00;99.90;;;;;;4937613;29;20439;-73
2022/08/31 10:39:43;;;;;;;9.30;7.53;;;19.10;99.90;;;;;;4945641;29;20870;-73
2022/08/31 10:42:18;;;;;;;13.80;7.97;;;19.20;99.90;;;;;;4949093;29;20543;-72
2022/08/31 10:44:55;;;;;;;16.20;8.10;;;19.20;99.90;;;;;;4943080;29;20460;-74
2022/08/31 10:47:27;;;;;;;9.70;8.10;;;19.30;99.90;;;;;;4945989;29;20475;-73
2022/08/31 10:49:58;;;;;;;11.37;7.97;;;19.40;99.90;;;;;;4944496;29;20432;-72
2022/08/31 10:52:28;;;;;;;8.80;7.90;;;19.50;99.90;;;;;;4941324;29;20488;-72
2022/08/31 10:55:54;;;;;;;9.27;8.03;;;19.40;99.90;;;;;;4938673;29;20968;-73
2022/08/31 10:58:20;;;;;;;13.20;8.50;;;19.50;99.90;;;;;;4905135;29;20438;-72
2022/08/31 11:00:48;;;;;;;10.83;7.30;;;19.50;99.90;;;;;;4953559;28;20435;-73
2022/08/31 11:03:57;;;;;;;9.70;8.50;;;19.50;99.90;;;;;;4939449;29;20652;-73
2022/08/31 11:06:38;;;;;;;8.17;7.30;;;19.50;99.90;;;;;;4942957;29;20492;-72
2022/08/31 11:09:25;;;;;;;11.00;8.20;;;19.60;99.90;;;;;;4947127;29;20427;-74
2022/08/31 11:12:05;;;;;;;7.60;6.90;;;19.70;99.90;;;;;;4945893;29;20491;-73
2022/08/31 11:15:05;;;;;;;9.67;8.80;;;19.70;99.90;;;;;;4935869;29;20548;-75
2022/08/31 11:17:56;;;;;;;8.87;8.00;;;19.80;99.90;;;;;;4947309;29;20765;-73
2022/08/31 11:20:53;;;;;;;9.43;7.90;;;19.80;99.90;;;;;;4940005;29;20429;-72
2022/08/31 11:23:25;;;;;;;9.33;8.43;;;19.70;99.90;;;;;;4943866;28;20456;-73
2022/08/31 11:26:26;;;;;;;9.70;8.70;;;19.70;99.90;;;;;;4939481;29;20465;-72
2022/08/31 11:28:59;;;;;;;11.43;7.77;;;19.60;99.90;;;;;;4930390;29;20445;-72
2022/08/31 11:31:29;;;;;;;12.90;7.47;;;19.60;99.90;;;;;;4943748;29;20460;-73
2022/08/31 11:34:25;;;;;;;13.23;8.73;;;19.50;99.90;;;;;;4941233;29;20426;-72
2022/08/31 11:36:56;;;;;;;13.13;9.17;;;19.40;99.90;;;;;;4931650;29;20499;-72
2022/08/31 11:39:34;;;;;;;9.30;8.10;;;19.40;99.90;;;;;;4940533;29;20446;-73
2022/08/31 11:42:03;;;;;;;9.63;8.73;;;19.40;99.90;;;;;;4939454;29;20439;-72
2022/08/31 11:44:28;;;;;;;8.03;7.30;;;19.30;99.90;;;;;;4944016;29;20493;-72
2022/08/31 11:47:08;;;;;;;9.10;7.97;;;19.30;99.90;;;;;;4946798;29;20499;-73
2022/08/31 11:49:39;;;;;;;11.40;8.50;;;19.30;99.90;;;;;;4943403;29;20185;-74
2022/08/31 11:52:13;;;;;;;11.60;8.37;;;19.30;99.90;;;;;;4938658;29;21010;-73
2022/08/31 11:54:41;;;;;;;16.00;8.70;;;19.30;99.90;;;;;;4923344;29;20465;-71
2022/08/31 11:57:14;;;;;;;9.27;8.47;;;19.30;99.90;;;;;;4942540;29;20557;-73
2022/08/31 11:59:44;;;;;;;9.80;8.27;;;19.30;99.90;;;;;;4937133;29;20423;-72
2022/08/31 12:02:19;;;;;;;8.87;8.07;;;19.30;99.90;;;;;;4935681;29;20515;-73
2022/08/31 12:04:47;;;;;;;10.00;7.83;;;19.40;99.90;;;;;;4938338;29;20823;-72
2022/08/31 12:07:23;;;;;;;9.30;8.27;;;19.30;99.90;;;;;;4944908;29;20452;-72
2022/08/31 12:10:00;;;;;;;8.50;7.57;;;19.30;99.90;;;;;;4938103;29;20441;-73
2022/08/31 12:12:41;;;;;;;14.50;7.87;;;19.40;99.90;;;;;;4943260;29;20455;-73
2022/08/31 12:15:28;;;;;;;9.67;8.73;;;19.40;99.90;;;;;;4946483;29;20413;-72
2022/08/31 12:18:15;;;;;;;9.20;8.03;;;19.40;99.90;;;;;;4943808;29;20467;-74
2022/08/31 12:23:43;;;;;;;10.93;8.83;;;19.50;99.90;;;;;;4949556;29;20464;-72
2022/08/31 12:26:37;;;;;;;10.20;8.70;;;19.50;99.90;;;;;;4931832;29;20573;-72
2022/08/31 12:29:08;;;;;;;14.97;9.13;;;19.60;99.90;;;;;;4942334;29;20428;-74
2022/08/31 12:31:38;;;;;;;13.40;8.60;;;19.60;99.90;;;;;;4950676;29;20447;-73
2022/08/31 12:34:12;;;;;;;10.10;9.10;;;19.70;99.90;;;;;;4943223;29;20433;-72
2022/08/31 12:36:39;;;;;;;15.47;8.83;;;19.90;99.90;;;;;;4932565;29;20408;-72
2022/08/31 12:39:19;;;;;;;9.93;8.50;;;20.00;99.90;;;;;;4933336;29;20445;-72
2022/08/31 12:41:51;;;;;;;10.37;8.47;;;20.10;99.90;;;;;;4937809;29;20448;-72
2022/08/31 12:44:37;;;;;;;10.00;8.30;;;20.30;99.90;;;;;;4947646;29;20424;-72
2022/08/31 12:47:33;;;;;;;15.10;8.00;;;20.60;99.90;;;;;;4939313;29;20427;-74
2022/08/31 12:50:41;;;;;;;9.70;7.60;;;20.70;99.90;;;;;;4937826;29;20918;-72
2022/08/31 12:53:58;;;;;;;9.13;8.30;;;20.90;99.90;;;;;;4928608;29;20428;-73
2022/08/31 12:56:55;;;;;;;12.53;8.10;;;21.20;99.90;;;;;;4940461;29;20429;-72
2022/08/31 12:59:42;;;;;;;18.80;8.60;;;21.40;99.90;;;;;;4938492;29;20541;-75
2022/08/31 13:02:11;;;;;;;9.83;7.40;;;21.40;99.90;;;;;;4938295;29;20463;-75
2022/08/31 13:04:42;;;;;;;8.10;7.30;;;21.50;99.90;;;;;;4931246;29;20432;-72
2022/08/31 13:07:16;;;;;;;17.70;8.70;;;21.40;99.90;;;;;;4950722;29;20787;-72
2022/08/31 13:09:42;;;;;;;7.10;6.40;;;21.40;99.90;;;;;;4922414;29;20488;-72
2022/08/31 13:12:08;;;;;;;17.00;8.70;;;21.50;99.90;;;;;;4935879;29;20543;-72
2022/08/31 13:14:42;;;;;;;15.37;8.07;;;21.50;99.90;;;;;;4945295;29;20832;-72
2022/08/31 13:17:20;;;;;;;8.80;8.00;;;21.60;99.90;;;;;;4940819;29;20428;-72
2022/08/31 13:19:57;;;;;;;9.80;7.90;;;21.70;99.90;;;;;;4935067;29;20483;-72
2022/08/31 13:22:39;;;;;;;11.03;7.63;;;21.90;99.90;;;;;;4934757;29;20543;-71
2022/08/31 13:25:15;;;;;;;8.27;7.50;;;22.10;99.90;;;;;;4937542;29;20500;-72
2022/08/31 13:27:47;;;;;;;13.07;8.90;;;22.30;99.90;;;;;;4950574;29;20428;-71
2022/08/31 13:30:18;;;;;;;11.90;8.30;;;22.20;99.90;;;;;;4948892;29;20471;-72
2022/08/31 13:32:49;;;;;;;11.33;9.27;;;22.10;99.90;;;;;;4933682;29;20495;-71
2022/08/31 13:35:18;;;;;;;10.57;7.20;;;22.20;99.90;;;;;;4944618;28;20413;-73
2022/08/31 13:38:06;;;;;;;11.27;7.93;;;22.40;99.90;;;;;;4942151;29;20454;-72
2022/08/31 13:40:35;;;;;;;9.23;8.30;;;22.60;99.90;;;;;;4937010;29;20459;-71
2022/08/31 13:43:03;;;;;;;9.20;6.93;;;22.70;99.90;;;;;;4937209;29;20810;-72
2022/08/31 13:45:32;;;;;;;13.50;9.77;;;22.70;99.90;;;;;;4945467;29;20467;-72
2022/08/31 13:48:04;;;;;;;8.77;7.90;;;22.70;99.90;;;;;;4937036;29;20451;-72
2022/08/31 13:50:36;;;;;;;10.20;8.30;;;22.70;99.90;;;;;;4952384;29;20939;-71
2022/08/31 13:53:04;;;;;;;8.20;7.00;;;22.60;99.90;;;;;;4944229;28;20847;-72
2022/08/31 13:55:40;;;;;;;16.37;8.30;;;22.70;99.90;;;;;;4943864;29;20429;-71
2022/08/31 13:58:23;;;;;;;9.73;8.77;;;22.60;99.90;;;;;;4941593;29;20535;-71
2022/08/31 14:00:56;;;;;;;9.87;8.30;;;22.60;99.90;;;;;;4948814;29;20428;-72
2022/08/31 14:03:50;;;;;;;9.87;8.13;;;22.70;99.90;;;;;;4951819;28;21128;-71
2022/08/31 14:06:22;;;;;;;11.70;8.70;;;22.70;99.90;;;;;;4950455;29;20463;-71
2022/08/31 14:08:51;;;;;;;9.90;9.00;;;22.50;99.90;;;;;;4932559;29;20941;-71
2022/08/31 14:11:17;;;;;;;14.30;9.03;;;22.40;99.90;;;;;;4940895;29;20870;-72
2022/08/31 14:13:48;;;;;;;11.17;8.20;;;22.30;99.90;;;;;;4942984;29;20492;-75
2022/08/31 14:16:31;;;;;;;8.97;8.10;;;22.20;99.90;;;;;;4952350;29;20498;-72
2022/08/31 14:18:58;;;;;;;8.60;7.70;;;22.10;99.90;;;;;;4944384;29;20499;-72
2022/08/31 14:21:42;;;;;;;11.63;8.10;;;22.00;99.90;;;;;;4940410;29;20504;-74
2022/08/31 14:24:10;;;;;;;11.93;8.43;;;21.90;99.90;;;;;;4943213;29;20445;-75
2022/08/31 14:26:40;;;;;;;13.90;8.57;;;21.80;99.90;;;;;;4939951;29;20468;-72
2022/08/31 14:29:08;;;;;;;8.97;8.17;;;21.70;99.90;;;;;;4949255;29;20425;-69
2022/08/31 14:31:50;;;;;;;9.17;8.07;;;21.70;99.90;;;;;;4951436;29;20463;-74
2022/08/31 14:34:23;;;;;;;9.53;8.63;;;21.70;99.90;;;;;;4937662;29;20877;-72
2022/08/31 14:36:54;;;;;;;9.43;8.60;;;21.80;99.90;;;;;;4944382;28;20421;-72
2022/08/31 14:39:41;;;;;;;10.63;8.50;;;21.90;99.90;;;;;;4950771;29;20483;-73
2022/08/31 14:42:13;;;;;;;10.50;7.53;;;22.00;99.90;;;;;;4947948;29;20892;-72
2022/08/31 14:44:41;;;;;;;9.60;8.10;;;22.10;99.90;;;;;;4933424;29;20507;-72